Time;durP1;ratioP1;P1;durP2;ratioP2;P2;SDS_P1;SDS_P2;PMS_P1;PMS_P2;Temp;Humidity;BMP_temperature;BMP_pressure;BME280_temperature;BME280_humidity;BME280_pressure;Samples;Min_cycle;Max_cycle;Signal;HPM_P1;HPM_P2
2023/08/19 00:01:05;;;;;;;0.35;0.35;;;21.00;99.90;;;;;;5059927;28;20604;-77
2023/08/19 00:03:32;;;;;;;0.10;0.10;;;21.00;99.90;;;;;;5079778;28;20120;-78
2023/08/19 00:06:08;;;;;;;0.10;0.10;;;20.80;99.90;;;;;;5079389;28;20032;-76
2023/08/19 00:08:35;;;;;;;0.10;0.10;;;20.60;99.90;;;;;;5080117;28;20013;-78
2023/08/19 00:11:01;;;;;;;0.10;0.10;;;20.80;99.90;;;;;;5060635;28;20028;-77
2023/08/19 00:13:27;;;;;;;0.10;0.10;;;20.50;99.90;;;;;;5060778;28;20564;-79
2023/08/19 00:15:53;;;;;;;0.10;0.10;;;19.80;99.90;;;;;;5078837;28;20012;-80
2023/08/19 00:18:19;;;;;;;0.20;0.20;;;20.70;99.90;;;;;;5079382;28;20186;-76
2023/08/19 00:20:46;;;;;;;0.10;0.10;;;;;;;;;;5079358;28;20092;-77
2023/08/19 00:23:16;;;;;;;0.15;0.15;;;20.70;99.90;;;;;;5061630;28;20483;-77
2023/08/19 00:25:42;;;;;;;0.10;0.10;;;;;;;;;;5079600;28;20059;-76
2023/08/19 00:28:09;;;;;;;0.65;0.65;;;20.50;99.90;;;;;;5080210;28;20054;-77
2023/08/19 00:30:35;;;;;;;0.32;0.32;;;20.30;99.90;;;;;;5079075;28;20035;-77
2023/08/19 00:33:02;;;;;;;0.08;0.08;;;;;;;;;;5079101;28;20524;-77
2023/08/19 00:35:28;;;;;;;0.85;0.85;;;19.90;99.90;;;;;;5060311;28;20017;-78
2023/08/19 00:37:54;;;;;;;0.10;0.10;;;19.20;99.90;;;;;;5060958;28;20596;-77
2023/08/19 00:40:21;;;;;;;0.10;0.10;;;20.20;99.90;;;;;;5079250;28;20770;-77
2023/08/19 00:42:47;;;;;;;0.57;0.57;;;20.10;99.90;;;;;;5079247;28;20226;-79
2023/08/19 00:45:14;;;;;;;0.10;0.10;;;20.30;99.90;;;;;;5060573;28;20032;-77
2023/08/19 00:47:40;;;;;;;0.10;0.10;;;20.30;99.90;;;;;;5078524;28;20103;-78
2023/08/19 00:50:11;;;;;;;0.10;0.10;;;20.80;99.90;;;;;;5079935;28;20544;-75
2023/08/19 00:52:39;;;;;;;0.30;0.30;;;20.30;99.90;;;;;;5082496;28;20027;-78
2023/08/19 00:55:06;;;;;;;0.82;0.45;;;20.50;99.90;;;;;;5064367;28;20023;-77
2023/08/19 00:57:36;;;;;;;0.10;0.10;;;20.40;99.90;;;;;;5082820;28;20270;-79
2023/08/19 01:00:04;;;;;;;0.20;0.20;;;21.00;99.90;;;;;;5082641;28;20615;-76
2023/08/19 01:02:30;;;;;;;0.52;0.52;;;20.20;99.90;;;;;;5082494;28;20471;-77
2023/08/19 01:04:56;;;;;;;2.80;2.55;;;20.40;99.90;;;;;;5082048;28;20051;-79
2023/08/19 01:07:33;;;;;;;0.10;0.10;;;20.60;99.90;;;;;;5082987;28;20020;-77
2023/08/19 01:10:08;;;;;;;1.85;1.75;;;20.60;99.90;;;;;;5082553;28;20095;-83
2023/08/19 01:13:04;;;;;;;0.85;0.85;;;18.70;99.90;;;;;;5064277;28;20032;-77
2023/08/19 01:15:39;;;;;;;3.50;2.20;;;20.70;99.90;;;;;;5082027;28;20078;-77
2023/08/19 01:18:06;;;;;;;0.70;0.63;;;20.70;99.90;;;;;;5082938;28;20020;-79
2023/08/19 01:20:33;;;;;;;0.20;0.20;;;17.60;99.90;;;;;;5064417;28;20027;-77
2023/08/19 01:23:23;;;;;;;0.10;0.10;;;20.50;99.90;;;;;;5082654;28;20031;-77
2023/08/19 01:25:52;;;;;;;0.30;0.30;;;19.90;99.90;;;;;;5083187;28;20073;-78
2023/08/19 01:28:20;;;;;;;0.35;0.35;;;19.80;99.90;;;;;;5083636;28;20052;-77
2023/08/19 01:30:46;;;;;;;0.90;0.90;;;19.50;99.90;;;;;;5082629;28;20080;-77
2023/08/19 01:33:13;;;;;;;1.15;1.10;;;19.70;99.90;;;;;;5082357;28;20133;-78
2023/08/19 01:35:45;;;;;;;0.20;0.20;;;18.90;99.90;;;;;;5064992;28;20028;-77
2023/08/19 01:38:39;;;;;;;0.10;0.10;;;18.50;99.90;;;;;;5082075;28;20070;-77
2023/08/19 01:41:05;;;;;;;;;;;18.50;99.90;;;;;;5082678;28;20024;-77
2023/08/19 01:43:32;;;;;;;2.25;1.65;;;18.20;99.90;;;;;;5082312;28;19908;-78
2023/08/19 01:45:59;;;;;;;0.10;0.10;;;18.10;99.90;;;;;;5082060;28;20512;-77
2023/08/19 01:48:25;;;;;;;0.10;0.10;;;17.30;99.90;;;;;;5082324;28;20303;-76
2023/08/19 01:50:52;;;;;;;0.10;0.10;;;18.00;99.90;;;;;;5083405;28;20536;-77
2023/08/19 01:53:18;;;;;;;0.10;0.10;;;18.00;99.90;;;;;;5082775;28;20553;-78
2023/08/19 01:55:44;;;;;;;0.10;0.10;;;17.80;99.90;;;;;;5082130;28;20485;-79
2023/08/19 01:58:10;;;;;;;0.43;0.43;;;17.80;99.90;;;;;;5082022;28;20016;-81
2023/08/19 02:00:39;;;;;;;0.10;0.10;;;17.90;99.90;;;;;;5082779;28;20018;-89
2023/08/19 02:03:07;;;;;;;0.52;0.47;;;18.30;99.90;;;;;;5041131;28;20136;-77
2023/08/19 02:05:35;;;;;;;0.10;0.10;;;;;;;;;;5040308;28;20036;-77
2023/08/19 02:08:01;;;;;;;4.07;3.80;;;17.90;99.90;;;;;;5040529;28;20533;-76
2023/08/19 02:10:27;;;;;;;0.20;0.20;;;17.90;99.90;;;;;;5041928;28;20308;-78
2023/08/19 02:12:53;;;;;;;0.20;0.20;;;18.10;99.90;;;;;;5041214;28;20712;-79
2023/08/19 02:15:20;;;;;;;0.10;0.10;;;;;;;;;;5039928;28;20013;-76
2023/08/19 02:17:46;;;;;;;1.15;1.15;;;18.10;99.90;;;;;;5041819;28;20032;-79
2023/08/19 02:20:12;;;;;;;0.10;0.10;;;18.10;99.90;;;;;;5040475;28;20024;-77
2023/08/19 02:22:40;;;;;;;0.10;0.10;;;18.20;99.90;;;;;;5039942;28;20028;-79
2023/08/19 02:25:07;;;;;;;0.10;0.10;;;18.10;99.90;;;;;;5039731;28;20248;-78
2023/08/19 02:27:33;;;;;;;1.98;1.48;;;18.10;99.90;;;;;;5040469;28;20104;-79
2023/08/19 02:29:59;;;;;;;0.90;0.90;;;18.30;99.90;;;;;;5039649;28;20097;-84
2023/08/19 02:32:26;;;;;;;0.10;0.10;;;18.60;99.90;;;;;;5041038;28;20029;-79
2023/08/19 02:34:52;;;;;;;0.65;0.65;;;19.00;99.90;;;;;;5038529;28;20194;-80
2023/08/19 02:37:18;;;;;;;0.10;0.10;;;19.90;99.90;;;;;;5041396;28;20438;-77
2023/08/19 02:39:44;;;;;;;0.10;0.10;;;19.50;99.90;;;;;;5040338;28;20469;-78
2023/08/19 02:42:11;;;;;;;0.10;0.10;;;19.50;99.90;;;;;;5040332;28;20160;-87
2023/08/19 02:44:37;;;;;;;0.10;0.10;;;19.70;99.90;;;;;;5040663;28;20104;-81
2023/08/19 02:47:03;;;;;;;0.10;0.10;;;20.50;99.90;;;;;;5040423;28;20089;-78
2023/08/19 02:49:30;;;;;;;0.10;0.10;;;;;;;;;;5040694;28;20017;-85
2023/08/19 02:51:56;;;;;;;0.10;0.10;;;19.40;99.90;;;;;;5040170;28;20040;-80
2023/08/19 02:54:23;;;;;;;0.10;0.10;;;19.70;99.90;;;;;;5042010;28;20025;-79
2023/08/19 02:56:49;;;;;;;0.10;0.10;;;19.20;99.90;;;;;;5040344;28;20021;-84
2023/08/19 02:59:15;;;;;;;0.10;0.10;;;;;;;;;;5041647;28;20237;-76
2023/08/19 03:01:41;;;;;;;0.75;0.75;;;18.80;99.90;;;;;;5057044;28;20048;-79
2023/08/19 03:04:07;;;;;;;0.25;0.25;;;18.60;99.90;;;;;;5080772;28;20051;-81
2023/08/19 03:06:34;;;;;;;0.10;0.10;;;18.50;99.90;;;;;;5061419;28;20051;-77
2023/08/19 03:09:00;;;;;;;0.10;0.10;;;19.00;99.90;;;;;;5063068;28;20402;-77
2023/08/19 03:11:26;;;;;;;0.10;0.10;;;18.90;99.90;;;;;;5081702;28;20305;-79
2023/08/19 03:13:52;;;;;;;0.10;0.10;;;18.40;99.90;;;;;;5081633;28;20164;-80
2023/08/19 03:16:18;;;;;;;0.10;0.10;;;15.50;99.90;;;;;;5063831;28;20114;-78
2023/08/19 03:18:44;;;;;;;0.10;0.10;;;18.00;99.90;;;;;;5063518;28;20228;-80
2023/08/19 03:21:10;;;;;;;0.10;0.10;;;;;;;;;;5081621;28;20020;-79
2023/08/19 03:23:36;;;;;;;0.10;0.10;;;17.80;99.90;;;;;;5062883;28;20047;-81
2023/08/19 03:26:02;;;;;;;4.38;2.92;;;17.80;99.90;;;;;;5062959;28;20028;-78
2023/08/19 03:28:28;;;;;;;0.10;0.10;;;17.80;99.90;;;;;;5080681;28;20377;-77
2023/08/19 03:30:54;;;;;;;0.47;0.47;;;18.10;99.90;;;;;;5080457;28;20057;-82
2023/08/19 03:33:20;;;;;;;0.17;0.17;;;18.60;99.90;;;;;;5080592;28;20024;-79
2023/08/19 03:35:46;;;;;;;0.10;0.10;;;19.10;99.90;;;;;;5080294;28;20031;-80
2023/08/19 03:38:13;;;;;;;0.10;0.10;;;18.70;99.90;;;;;;5080220;28;20035;-76
2023/08/19 03:40:39;;;;;;;0.10;0.10;;;18.30;99.90;;;;;;5079359;28;20372;-77
2023/08/19 03:43:09;;;;;;;0.10;0.10;;;18.40;99.90;;;;;;5080883;28;20031;-79
2023/08/19 03:45:35;;;;;;;0.10;0.10;;;18.40;99.90;;;;;;5063157;28;20050;-79
2023/08/19 03:48:01;;;;;;;0.10;0.10;;;17.90;99.90;;;;;;5063819;28;20345;-81
2023/08/19 03:50:27;;;;;;;0.40;0.40;;;17.80;99.90;;;;;;5080093;28;20013;-77
2023/08/19 03:52:53;;;;;;;0.10;0.10;;;17.70;99.90;;;;;;5079045;28;20032;-78
2023/08/19 03:55:19;;;;;;;0.10;0.10;;;17.50;99.90;;;;;;5079450;28;20016;-79
2023/08/19 03:57:45;;;;;;;0.10;0.10;;;17.30;99.90;;;;;;5079471;28;20043;-77
2023/08/19 04:00:12;;;;;;;0.10;0.10;;;17.30;99.90;;;;;;5078964;28;20305;-77
2023/08/19 04:02:38;;;;;;;0.10;0.10;;;17.20;99.90;;;;;;5061669;28;20051;-79
2023/08/19 04:05:05;;;;;;;0.05;0.05;;;17.40;99.90;;;;;;5081210;28;20776;-77
2023/08/19 04:07:31;;;;;;;0.10;0.10;;;17.30;99.90;;;;;;5080805;28;20056;-77
2023/08/19 04:09:58;;;;;;;0.10;0.10;;;17.20;99.90;;;;;;5079675;28;20059;-79
2023/08/19 04:12:24;;;;;;;0.10;0.10;;;17.20;99.90;;;;;;5080285;28;20097;-78
2023/08/19 04:14:51;;;;;;;0.10;0.10;;;17.00;99.90;;;;;;5079084;28;20012;-82
2023/08/19 04:17:17;;;;;;;0.10;0.10;;;17.00;99.90;;;;;;5078806;28;20133;-78
2023/08/19 04:19:44;;;;;;;0.10;0.10;;;16.70;99.90;;;;;;5080516;28;20042;-79
2023/08/19 04:22:14;;;;;;;0.10;0.10;;;16.80;99.90;;;;;;5080026;28;20062;-83
2023/08/19 04:24:40;;;;;;;0.10;0.10;;;16.80;99.90;;;;;;5080302;28;20043;-79
2023/08/19 04:27:07;;;;;;;0.10;0.10;;;16.70;99.90;;;;;;5065033;28;20032;-83
2023/08/19 04:29:34;;;;;;;0.22;0.22;;;16.70;99.90;;;;;;5083074;28;20016;-78
2023/08/19 04:32:03;;;;;;;0.10;0.10;;;16.70;99.90;;;;;;5083191;28;20132;-80
2023/08/19 04:34:30;;;;;;;0.50;0.50;;;16.80;99.90;;;;;;5083569;28;20093;-79
2023/08/19 04:36:56;;;;;;;0.10;0.10;;;16.60;99.90;;;;;;5082719;28;20111;-78
2023/08/19 04:39:23;;;;;;;0.28;0.28;;;17.00;99.90;;;;;;5083478;28;20476;-78
2023/08/19 04:41:50;;;;;;;0.20;0.20;;;16.80;99.90;;;;;;5083317;28;20656;-78
2023/08/19 04:44:17;;;;;;;0.40;0.40;;;16.70;99.90;;;;;;5082322;28;20424;-79
2023/08/19 04:46:43;;;;;;;0.10;0.10;;;16.70;99.90;;;;;;5083040;28;20394;-78
2023/08/19 04:49:09;;;;;;;0.13;0.13;;;16.80;99.90;;;;;;5083364;28;20034;-78
2023/08/19 04:51:35;;;;;;;0.10;0.10;;;16.80;99.90;;;;;;5082757;28;20228;-78
2023/08/19 04:54:03;;;;;;;0.10;0.10;;;16.90;99.90;;;;;;5082828;28;20016;-78
2023/08/19 04:56:29;;;;;;;0.05;0.05;;;17.40;99.90;;;;;;5083309;28;20073;-79
2023/08/19 04:58:56;;;;;;;0.90;0.75;;;17.10;99.90;;;;;;5063863;28;20027;-79
2023/08/19 05:01:23;;;;;;;2.40;1.38;;;17.40;99.90;;;;;;5082329;28;20643;-79
2023/08/19 05:03:49;;;;;;;0.10;0.10;;;17.30;99.90;;;;;;5083357;28;20035;-78
2023/08/19 05:06:15;;;;;;;0.10;0.10;;;17.50;99.90;;;;;;5064741;28;20016;-78
2023/08/19 05:08:41;;;;;;;0.10;0.10;;;16.90;99.90;;;;;;5083210;28;20256;-79
2023/08/19 05:11:07;;;;;;;0.10;0.10;;;17.40;99.90;;;;;;5082711;28;20339;-78
2023/08/19 05:13:33;;;;;;;0.10;0.10;;;17.40;99.90;;;;;;5082159;28;20039;-84
2023/08/19 05:15:59;;;;;;;0.63;0.63;;;17.40;99.90;;;;;;5081633;28;20008;-78
2023/08/19 05:18:28;;;;;;;0.10;0.10;;;17.40;99.90;;;;;;5063607;28;20031;-82
2023/08/19 05:20:54;;;;;;;0.10;0.10;;;17.40;99.90;;;;;;5064020;28;20032;-78
2023/08/19 05:23:20;;;;;;;0.10;0.10;;;17.40;99.90;;;;;;5062997;28;20036;-78
2023/08/19 05:25:46;;;;;;;5.38;1.05;;;17.40;99.90;;;;;;5082561;28;20305;-79
2023/08/19 05:28:12;;;;;;;0.10;0.10;;;;;;;;;;5081235;28;20028;-78
2023/08/19 05:30:38;;;;;;;0.20;0.20;;;17.70;99.90;;;;;;5080772;28;20021;-78
2023/08/19 05:33:04;;;;;;;0.10;0.10;;;17.90;99.90;;;;;;5064005;28;20051;-79
2023/08/19 05:35:30;;;;;;;0.65;0.65;;;18.10;99.90;;;;;;5082593;28;20027;-79
2023/08/19 05:37:56;;;;;;;0.00;0.00;;;18.00;99.90;;;;;;5082608;28;20054;-78
2023/08/19 05:40:22;;;;;;;0.10;0.10;;;17.40;99.90;;;;;;5082727;28;20614;-79
2023/08/19 05:42:48;;;;;;;0.10;0.10;;;18.40;99.90;;;;;;5064608;28;20028;-80
2023/08/19 05:45:15;;;;;;;0.10;0.10;;;18.60;99.90;;;;;;5083239;28;20020;-78
2023/08/19 05:47:41;;;;;;;0.20;0.20;;;18.90;99.90;;;;;;5063549;28;20031;-83
2023/08/19 05:50:08;;;;;;;0.10;0.10;;;19.10;99.90;;;;;;5081828;28;20099;-79
2023/08/19 05:52:34;;;;;;;21.90;4.72;;;19.30;99.90;;;;;;5081147;28;20091;-78
2023/08/19 05:55:00;;;;;;;0.60;0.60;;;18.60;99.90;;;;;;5081987;28;20046;-78
2023/08/19 05:57:27;;;;;;;0.10;0.10;;;19.70;99.90;;;;;;5064052;28;20106;-78
2023/08/19 05:59:53;;;;;;;0.30;0.30;;;19.40;99.90;;;;;;5063651;28;20023;-78
2023/08/19 06:02:21;;;;;;;0.20;0.20;;;20.00;99.90;;;;;;5081740;28;20563;-77
2023/08/19 06:04:47;;;;;;;0.10;0.10;;;19.50;99.90;;;;;;5082366;28;20228;-78
2023/08/19 06:07:15;;;;;;;0.20;0.20;;;19.60;99.90;;;;;;5081430;28;20036;-80
2023/08/19 06:09:41;;;;;;;0.20;0.20;;;19.80;99.90;;;;;;5063518;28;20028;-78
2023/08/19 06:12:08;;;;;;;0.10;0.10;;;20.10;99.90;;;;;;5081275;28;20321;-79
2023/08/19 06:14:34;;;;;;;0.10;0.10;;;23.00;99.90;;;;;;5063979;28;20024;-79
2023/08/19 06:17:00;;;;;;;0.10;0.10;;;20.50;99.90;;;;;;5062701;28;20525;-79
2023/08/19 06:19:26;;;;;;;0.30;0.30;;;20.80;99.90;;;;;;5082283;28;20099;-79
2023/08/19 06:21:53;;;;;;;0.70;0.65;;;20.80;99.90;;;;;;5080878;28;20032;-80
2023/08/19 06:24:19;;;;;;;0.10;0.10;;;21.20;99.90;;;;;;5081337;28;20109;-80
2023/08/19 06:26:45;;;;;;;0.10;0.10;;;21.30;99.90;;;;;;5080664;28;20031;-78
2023/08/19 06:29:11;;;;;;;0.10;0.10;;;21.20;99.90;;;;;;5080565;28;20028;-79
2023/08/19 06:31:37;;;;;;;0.10;0.10;;;21.50;99.90;;;;;;5081012;28;20295;-79
2023/08/19 06:34:04;;;;;;;0.10;0.10;;;21.40;99.90;;;;;;5080782;28;20359;-78
2023/08/19 06:36:31;;;;;;;0.10;0.10;;;22.10;99.90;;;;;;5084739;28;20025;-82
2023/08/19 06:39:12;;;;;;;0.10;0.10;;;22.00;99.90;;;;;;5081377;28;20032;-80
2023/08/19 06:41:44;;;;;;;0.28;0.28;;;21.80;99.90;;;;;;5081028;28;20287;-94
2023/08/19 06:44:11;;;;;;;0.00;0.00;;;22.00;99.90;;;;;;5081462;28;20189;-79
2023/08/19 06:46:38;;;;;;;0.10;0.10;;;21.80;99.90;;;;;;5062557;28;20119;-77
2023/08/19 06:49:04;;;;;;;0.10;0.10;;;21.80;99.90;;;;;;5080881;28;20017;-79
2023/08/19 06:51:30;;;;;;;0.15;0.15;;;21.80;99.90;;;;;;5084624;28;20122;-77
2023/08/19 06:53:57;;;;;;;0.10;0.10;;;21.90;99.90;;;;;;5080888;28;20295;-77
2023/08/19 06:56:32;;;;;;;0.88;0.88;;;21.70;99.90;;;;;;5081928;28;20031;-80
2023/08/19 06:59:03;;;;;;;0.10;0.10;;;22.60;99.90;;;;;;5082140;28;20114;-77
2023/08/19 07:01:30;;;;;;;1.85;1.17;;;22.00;99.90;;;;;;5080308;28;20036;-76
2023/08/19 07:03:57;;;;;;;0.08;0.08;;;22.10;99.90;;;;;;5080638;28;20024;-77
2023/08/19 07:06:24;;;;;;;0.10;0.10;;;22.00;99.90;;;;;;5061315;28;20067;-84
2023/08/19 07:08:50;;;;;;;0.00;0.00;;;22.10;99.90;;;;;;5060039;28;20564;-81
2023/08/19 07:11:16;;;;;;;0.10;0.10;;;22.10;99.90;;;;;;5059974;28;20493;-77
2023/08/19 07:13:43;;;;;;;6.60;1.30;;;22.20;99.90;;;;;;5041355;28;20552;-76
2023/08/19 07:16:12;;;;;;;0.25;0.25;;;22.50;99.90;;;;;;5060686;28;20698;-80
2023/08/19 07:18:40;;;;;;;1.17;1.17;;;22.60;99.90;;;;;;5041313;28;20166;-76
2023/08/19 07:21:13;;;;;;;0.25;0.25;;;22.50;99.90;;;;;;5060524;28;20020;-78
2023/08/19 07:23:45;;;;;;;0.20;0.20;;;22.70;99.90;;;;;;5059492;28;20748;-80
2023/08/19 07:26:12;;;;;;;0.00;0.00;;;22.80;99.90;;;;;;5059882;28;20096;-79
2023/08/19 07:28:39;;;;;;;0.10;0.10;;;22.90;99.90;;;;;;5060206;28;20040;-76
2023/08/19 07:31:05;;;;;;;0.00;0.00;;;23.10;99.90;;;;;;5060267;28;20040;-89
2023/08/19 07:33:31;;;;;;;0.08;0.08;;;22.80;99.90;;;;;;5059440;28;20051;-76
2023/08/19 07:35:57;;;;;;;1.00;0.90;;;22.90;99.90;;;;;;5059043;28;20099;-75
2023/08/19 07:38:23;;;;;;;0.57;0.57;;;22.90;99.90;;;;;;5041467;28;20391;-81
2023/08/19 07:40:50;;;;;;;0.32;0.30;;;22.90;99.90;;;;;;5058844;28;20631;-83
2023/08/19 07:43:16;;;;;;;0.32;0.32;;;23.00;99.90;;;;;;5059371;28;20022;-76
2023/08/19 07:45:42;;;;;;;0.38;0.38;;;23.10;99.90;;;;;;5061855;28;20032;-76
2023/08/19 07:48:09;;;;;;;0.10;0.10;;;23.00;99.90;;;;;;5060675;28;20017;-76
2023/08/19 07:50:35;;;;;;;0.08;0.08;;;23.00;99.90;;;;;;5059643;28;20017;-82
2023/08/19 07:53:01;;;;;;;0.85;0.85;;;23.50;99.90;;;;;;5059039;28;20031;-80
2023/08/19 07:55:27;;;;;;;0.55;0.55;;;23.10;99.90;;;;;;5059010;28;20016;-78
2023/08/19 07:57:53;;;;;;;0.38;0.20;;;23.20;99.90;;;;;;5058938;28;20047;-76
2023/08/19 08:00:21;;;;;;;0.10;0.10;;;23.40;99.90;;;;;;5040895;28;20013;-82
2023/08/19 08:02:48;;;;;;;0.03;0.03;;;23.30;99.90;;;;;;5043980;28;20048;-74
2023/08/19 08:05:14;;;;;;;0.10;0.10;;;23.70;99.90;;;;;;5059570;28;20697;-75
2023/08/19 08:07:40;;;;;;;0.10;0.10;;;23.40;99.90;;;;;;5058989;28;20033;-86
2023/08/19 08:10:06;;;;;;;0.40;0.40;;;23.50;99.90;;;;;;5041087;28;20573;-77
2023/08/19 08:12:32;;;;;;;0.10;0.10;;;23.60;99.90;;;;;;5040913;28;20033;-76
2023/08/19 08:15:03;;;;;;;0.10;0.10;;;23.70;99.90;;;;;;5042070;28;20023;-88
2023/08/19 08:17:30;;;;;;;0.10;0.10;;;23.70;99.90;;;;;;5058451;28;20024;-79
2023/08/19 08:19:57;;;;;;;0.10;0.10;;;23.50;99.90;;;;;;5059846;28;20017;-77
2023/08/19 08:22:23;;;;;;;0.13;0.13;;;23.60;99.90;;;;;;5059075;28;20021;-82
2023/08/19 08:24:50;;;;;;;0.38;0.38;;;;;;;;;;5059208;28;20138;-81
2023/08/19 08:27:16;;;;;;;0.10;0.10;;;23.50;99.90;;;;;;5059384;28;20021;-76
2023/08/19 08:29:41;;;;;;;1.17;0.73;;;23.40;99.90;;;;;;5062221;28;20028;-82
2023/08/19 08:32:10;;;;;;;0.10;0.10;;;23.30;99.90;;;;;;5060179;28;20514;-80
2023/08/19 08:34:36;;;;;;;1.40;1.27;;;23.10;99.90;;;;;;5040213;28;20012;-89
2023/08/19 08:37:02;;;;;;;0.40;0.40;;;23.10;99.90;;;;;;5059225;28;20028;-77
2023/08/19 08:39:29;;;;;;;0.10;0.10;;;23.20;99.90;;;;;;5059307;28;20017;-74
2023/08/19 08:41:55;;;;;;;0.60;0.60;;;23.20;99.90;;;;;;5059251;28;20012;-77
2023/08/19 08:44:21;;;;;;;0.60;0.60;;;21.90;99.90;;;;;;5040643;28;20043;-77
2023/08/19 08:46:49;;;;;;;0.10;0.10;;;23.10;99.90;;;;;;5040507;28;20021;-78
2023/08/19 08:49:17;;;;;;;0.20;0.20;;;23.20;99.90;;;;;;5058741;28;20052;-77
2023/08/19 08:51:43;;;;;;;0.40;0.32;;;22.60;99.90;;;;;;5058516;28;20142;-87
2023/08/19 08:54:11;;;;;;;1.45;1.40;;;23.20;99.90;;;;;;5058709;28;20088;-85
2023/08/19 08:56:37;;;;;;;1.67;0.63;;;23.20;99.90;;;;;;5058613;28;20025;-76
2023/08/19 08:59:03;;;;;;;0.52;0.52;;;;;;;;;;5058012;28;20021;-88
2023/08/19 09:01:32;;;;;;;0.30;0.30;;;23.60;99.90;;;;;;5059160;28;20036;-91
2023/08/19 09:04:04;;;;;;;0.22;0.22;;;23.80;99.90;;;;;;5041337;28;20052;-77
2023/08/19 09:06:30;;;;;;;2.92;0.80;;;;;;;;;;5059753;28;20532;-77
2023/08/19 09:09:08;;;;;;;0.17;0.17;;;23.80;99.90;;;;;;5060167;28;20043;-80
2023/08/19 09:11:38;;;;;;;0.45;0.45;;;23.90;99.90;;;;;;5041254;28;20521;-78
2023/08/19 09:14:10;;;;;;;0.10;0.10;;;23.80;99.90;;;;;;5045381;28;20096;-81
2023/08/19 09:16:36;;;;;;;0.30;0.30;;;24.20;99.90;;;;;;5044218;28;20015;-79
2023/08/19 09:19:02;;;;;;;0.75;0.75;;;24.40;99.90;;;;;;5062811;28;20028;-89
2023/08/19 09:21:29;;;;;;;0.10;0.10;;;24.60;99.90;;;;;;5061637;28;20036;-83
2023/08/19 09:23:57;;;;;;;1.90;0.50;;;24.50;99.90;;;;;;5062983;28;20016;-77
2023/08/19 09:26:25;;;;;;;0.10;0.10;;;24.40;99.90;;;;;;5062387;28;20040;-78
2023/08/19 09:28:55;;;;;;;0.03;0.03;;;24.60;99.90;;;;;;5062205;28;20082;-80
2023/08/19 09:31:23;;;;;;;0.75;0.63;;;24.60;99.90;;;;;;5061512;28;20021;-88
2023/08/19 09:33:50;;;;;;;0.20;0.20;;;24.70;99.90;;;;;;5060923;28;20027;-75
2023/08/19 09:36:16;;;;;;;0.55;0.55;;;24.90;99.90;;;;;;5043312;28;20028;-76
2023/08/19 09:38:42;;;;;;;0.10;0.10;;;25.00;99.90;;;;;;5042547;28;20090;-77
2023/08/19 09:41:10;;;;;;;0.63;0.63;;;25.10;99.90;;;;;;5060324;28;20544;-74
2023/08/19 09:43:39;;;;;;;0.25;0.25;;;25.20;99.90;;;;;;5049178;28;20017;-87
2023/08/19 09:46:05;;;;;;;2.20;0.70;;;25.40;99.90;;;;;;5062168;28;20023;-77
2023/08/19 09:48:31;;;;;;;0.00;0.00;;;25.00;99.90;;;;;;5066587;28;20107;-75
2023/08/19 09:50:57;;;;;;;2.45;1.10;;;25.30;99.90;;;;;;5044981;28;20685;-77
2023/08/19 09:53:27;;;;;;;0.65;0.65;;;25.40;99.90;;;;;;5061887;28;20088;-76
2023/08/19 09:55:52;;;;;;;1.08;0.65;;;25.50;99.90;;;;;;5043622;28;20216;-83
2023/08/19 09:58:18;;;;;;;0.03;0.03;;;25.60;99.90;;;;;;5063896;28;20714;-76
2023/08/19 10:00:45;;;;;;;2.80;1.40;;;25.60;99.90;;;;;;5065803;28;20008;-77
2023/08/19 10:03:11;;;;;;;0.00;0.00;;;25.60;99.90;;;;;;5063204;28;20025;-84
2023/08/19 10:05:40;;;;;;;0.10;0.10;;;25.60;99.90;;;;;;5044187;28;20307;-75
2023/08/19 10:08:19;;;;;;;0.63;0.63;;;25.80;99.90;;;;;;5045522;28;20069;-83
2023/08/19 10:10:46;;;;;;;0.25;0.25;;;25.80;99.90;;;;;;5044705;28;20020;-84
2023/08/19 10:13:14;;;;;;;0.52;0.50;;;26.40;99.90;;;;;;5061334;28;20093;-76
2023/08/19 10:15:42;;;;;;;0.10;0.10;;;26.20;99.90;;;;;;5042655;28;20100;-76
2023/08/19 10:18:22;;;;;;;1.23;1.13;;;26.60;99.90;;;;;;5064392;28;20017;-84
2023/08/19 10:20:54;;;;;;;2.22;0.77;;;26.40;99.90;;;;;;5060327;28;20073;-76
2023/08/19 10:23:21;;;;;;;0.57;0.57;;;26.60;99.90;;;;;;5060358;28;20023;-80
2023/08/19 10:25:48;;;;;;;0.10;0.10;;;27.10;99.90;;;;;;5060730;28;20087;-85
2023/08/19 10:28:27;;;;;;;0.30;0.30;;;27.20;99.90;;;;;;5042768;28;20072;-79
2023/08/19 10:31:09;;;;;;;0.65;0.60;;;27.30;99.90;;;;;;5060486;28;20678;-76
2023/08/19 10:33:44;;;;;;;1.70;0.50;;;27.10;99.90;;;;;;5062644;28;20044;-87
2023/08/19 10:36:18;;;;;;;0.73;0.60;;;27.80;99.90;;;;;;5061523;28;20267;-76
2023/08/19 10:39:00;;;;;;;0.10;0.10;;;27.10;99.90;;;;;;5062453;28;20091;-75
2023/08/19 10:41:27;;;;;;;1.42;1.35;;;26.80;99.90;;;;;;5041418;28;20659;-78
2023/08/19 10:44:27;;;;;;;1.08;0.85;;;26.80;99.90;;;;;;5060432;28;20017;-80
2023/08/19 10:47:14;;;;;;;0.52;0.52;;;27.40;99.90;;;;;;5060682;28;20508;-74
2023/08/19 10:49:40;;;;;;;0.10;0.10;;;27.40;99.90;;;;;;5060963;28;20497;-75
2023/08/19 10:52:06;;;;;;;6.75;2.13;;;27.10;99.90;;;;;;5060090;28;20039;-77
2023/08/19 10:54:40;;;;;;;0.00;0.00;;;26.70;99.90;;;;;;5059704;28;20142;-80
2023/08/19 10:57:22;;;;;;;0.10;0.10;;;26.40;99.90;;;;;;5061753;28;20074;-84
2023/08/19 10:59:53;;;;;;;0.35;0.35;;;26.80;99.90;;;;;;5059851;28;20043;-78
2023/08/19 11:02:19;;;;;;;0.82;0.75;;;25.70;99.90;;;;;;5043762;28;20052;-76
2023/08/19 11:04:54;;;;;;;1.00;0.75;;;27.30;99.90;;;;;;5060937;28;20035;-74
2023/08/19 11:07:21;;;;;;;0.10;0.10;;;27.60;99.90;;;;;;5063009;28;20021;-76
2023/08/19 11:09:49;;;;;;;0.57;0.57;;;27.90;99.90;;;;;;5061695;28;20005;-80
2023/08/19 11:12:20;;;;;;;1.75;0.88;;;28.30;99.90;;;;;;5062443;28;20031;-79
2023/08/19 11:14:47;;;;;;;0.30;0.30;;;28.40;99.90;;;;;;5060977;28;20020;-81
2023/08/19 11:17:14;;;;;;;0.10;0.10;;;;;;;;;;5062600;28;20012;-75
2023/08/19 11:19:40;;;;;;;0.95;0.88;;;28.40;99.90;;;;;;5062909;28;20553;-82
2023/08/19 11:22:11;;;;;;;1.55;1.27;;;29.10;99.90;;;;;;5043166;28;20578;-82
2023/08/19 11:24:37;;;;;;;2.22;1.27;;;29.10;99.90;;;;;;5042697;28;20569;-83
2023/08/19 11:27:03;;;;;;;0.20;0.20;;;28.70;99.90;;;;;;5061711;28;20127;-85
2023/08/19 11:29:29;;;;;;;0.45;0.45;;;28.60;99.90;;;;;;5046669;28;20051;-86
2023/08/19 11:31:56;;;;;;;0.52;0.52;;;28.70;99.90;;;;;;5065018;28;20025;-76
2023/08/19 11:34:28;;;;;;;1.75;1.25;;;28.50;99.90;;;;;;5046779;28;20044;-80
2023/08/19 11:36:55;;;;;;;0.65;0.65;;;28.30;99.90;;;;;;5043718;28;20590;-89
2023/08/19 11:39:21;;;;;;;0.55;0.55;;;28.20;99.90;;;;;;5059943;28;20044;-76
2023/08/19 11:41:47;;;;;;;3.17;1.40;;;28.00;99.90;;;;;;5061577;28;20109;-92
2023/08/19 11:44:14;;;;;;;0.10;0.10;;;28.20;99.90;;;;;;5068856;28;20172;-77
2023/08/19 11:46:40;;;;;;;0.35;0.32;;;28.50;99.90;;;;;;5065854;28;20013;-90
2023/08/19 11:49:07;;;;;;;3.40;2.42;;;28.60;99.90;;;;;;5060106;28;20738;-79
2023/08/19 11:51:35;;;;;;;0.35;0.35;;;28.90;99.90;;;;;;5041696;28;20016;-83
2023/08/19 11:54:04;;;;;;;3.25;0.82;;;29.10;99.90;;;;;;5059752;28;20028;-79
2023/08/19 11:56:45;;;;;;;1.27;0.90;;;29.10;99.90;;;;;;5060864;28;20303;-78
2023/08/19 11:59:11;;;;;;;2.78;2.13;;;29.40;99.90;;;;;;5059913;28;20017;-81
2023/08/19 12:01:37;;;;;;;3.05;1.55;;;29.70;99.90;;;;;;5060304;28;20744;-76
2023/08/19 12:04:15;;;;;;;0.65;0.65;;;30.10;99.90;;;;;;5059745;28;20029;-81
2023/08/19 12:06:45;;;;;;;0.75;0.68;;;30.40;99.90;;;;;;5059607;28;20021;-78
2023/08/19 12:09:11;;;;;;;2.38;1.80;;;31.70;99.90;;;;;;5059471;28;20620;-76
2023/08/19 12:11:38;;;;;;;0.93;0.73;;;30.40;99.90;;;;;;5060181;28;20023;-84
2023/08/19 12:14:06;;;;;;;2.92;1.40;;;30.90;99.90;;;;;;5061842;28;20021;-79
2023/08/19 12:16:33;;;;;;;4.00;1.10;;;30.90;99.90;;;;;;5061801;28;20021;-78
2023/08/19 12:18:59;;;;;;;2.40;2.08;;;30.70;99.90;;;;;;5041714;28;20500;-74
2023/08/19 12:21:25;;;;;;;0.90;0.75;;;31.20;99.90;;;;;;5044628;28;20052;-76
2023/08/19 12:23:52;;;;;;;6.05;2.63;;;31.20;99.90;;;;;;5047209;28;20070;-79
2023/08/19 12:26:18;;;;;;;1.02;0.80;;;31.50;99.90;;;;;;5043328;28;20709;-79
2023/08/19 12:28:43;;;;;;;1.52;1.40;;;31.30;99.90;;;;;;5041214;28;20021;-75
2023/08/19 12:31:10;;;;;;;0.57;0.57;;;31.60;99.90;;;;;;5041772;28;20052;-82
2023/08/19 12:33:39;;;;;;;3.13;1.88;;;32.00;99.90;;;;;;5059063;28;20096;-87
2023/08/19 12:36:06;;;;;;;1.73;1.52;;;32.50;98.60;;;;;;5058689;28;20017;-91
2023/08/19 12:38:32;;;;;;;1.75;1.05;;;32.80;98.70;;;;;;5042638;28;20271;-78
2023/08/19 12:40:57;;;;;;;6.18;1.98;;;33.20;97.10;;;;;;5060028;28;20131;-76
2023/08/19 12:43:24;;;;;;;3.53;2.20;;;33.60;96.40;;;;;;5043826;28;20166;-74
2023/08/19 12:45:49;;;;;;;2.35;1.17;;;33.80;96.20;;;;;;5042455;28;20032;-76
2023/08/19 12:48:15;;;;;;;1.42;1.17;;;34.20;94.70;;;;;;5045545;28;20138;-77
2023/08/19 12:50:44;;;;;;;1.05;0.73;;;33.50;94.80;;;;;;5064136;28;20104;-81
2023/08/19 12:53:10;;;;;;;0.98;0.80;;;33.30;95.40;;;;;;5070391;28;20031;-82